Time;durP1;ratioP1;P1;durP2;ratioP2;P2;SDS_P1;SDS_P2;PMS_P1;PMS_P2;Temp;Humidity;BMP_temperature;BMP_pressure;BME280_temperature;BME280_humidity;BME280_pressure;Samples;Min_cycle;Max_cycle;Signal;HPM_P1;HPM_P2
2023/07/15 00:01:20;;;;;;;5.50;4.63;;;;;;;21.57;61.27;99830.63;4935732;29;20083;-77
2023/07/15 00:03:49;;;;;;;10.68;4.55;;;;;;;21.56;61.46;99844.19;4936092;29;20118;-76
2023/07/15 00:06:17;;;;;;;7.72;4.32;;;;;;;21.59;61.06;99825.06;4935578;29;20039;-76
2023/07/15 00:08:44;;;;;;;9.93;5.30;;;;;;;21.53;61.63;99834.84;4935783;29;20143;-77
2023/07/15 00:11:16;;;;;;;8.55;4.50;;;;;;;21.43;61.64;99819.53;4931301;29;20044;-76
2023/07/15 00:13:43;;;;;;;5.97;4.38;;;;;;;21.47;61.37;99825.16;4936510;29;20118;-77
2023/07/15 00:16:09;;;;;;;9.35;4.82;;;;;;;21.42;61.74;99825.09;4937432;29;20047;-77
2023/07/15 00:18:36;;;;;;;6.53;5.13;;;;;;;21.37;62.17;99825.84;4937713;29;20138;-77
2023/07/15 00:21:14;;;;;;;7.78;4.40;;;;;;;21.33;62.13;99827.38;4941087;29;20079;-78
2023/07/15 00:23:42;;;;;;;5.57;4.30;;;;;;;21.28;62.18;99837.94;4940550;29;20079;-78
2023/07/15 00:26:09;;;;;;;6.22;4.40;;;;;;;21.26;62.31;99825.97;4939001;29;20052;-78
2023/07/15 00:28:37;;;;;;;6.85;4.53;;;;;;;21.30;62.59;99841.16;4947201;29;20047;-78
2023/07/15 00:31:13;;;;;;;5.90;4.82;;;;;;;21.29;62.31;99830.75;4943057;29;20103;-78
2023/07/15 00:33:40;;;;;;;7.60;4.45;;;;;;;21.26;62.49;99832.09;4941334;29;20043;-78
2023/07/15 00:36:06;;;;;;;6.38;4.70;;;;;;;21.24;62.63;99830.72;4941320;29;20051;-78
2023/07/15 00:38:33;;;;;;;5.78;4.15;;;;;;;21.19;62.52;99834.88;4943525;29;20078;-77
2023/07/15 00:41:06;;;;;;;7.50;4.68;;;;;;;21.13;62.86;99843.03;4949505;29;20055;-77
2023/07/15 00:43:58;;;;;;;7.05;4.43;;;;;;;21.09;63.30;99837.41;4950087;29;20079;-77
2023/07/15 00:46:58;;;;;;;10.38;4.50;;;;;;;21.04;63.22;99841.84;4952390;29;20070;-77
2023/07/15 00:49:28;;;;;;;10.68;4.32;;;;;;;20.98;63.52;99834.81;4944349;29;20110;-78
2023/07/15 00:52:01;;;;;;;7.90;4.45;;;;;;;20.92;63.68;99833.13;4948197;29;20055;-78
2023/07/15 00:54:29;;;;;;;5.40;4.40;;;;;;;20.84;63.70;99837.81;4946885;29;20051;-78
2023/07/15 00:56:56;;;;;;;7.82;4.93;;;;;;;20.81;63.83;99832.97;4947191;29;20074;-76
2023/07/15 00:59:24;;;;;;;7.18;4.50;;;;;;;20.78;63.93;99830.81;4944793;29;20047;-76
2023/07/15 01:01:53;;;;;;;7.65;4.55;;;;;;;20.81;63.70;99821.53;4945154;29;20058;-76
2023/07/15 01:04:21;;;;;;;7.50;4.70;;;;;;;20.76;63.79;99824.94;4954361;28;20467;-77
2023/07/15 01:06:48;;;;;;;7.65;4.75;;;;;;;20.75;64.06;99830.50;4944243;29;20508;-78
2023/07/15 01:09:15;;;;;;;6.80;4.10;;;;;;;20.73;64.10;99824.63;4947484;29;20127;-77
2023/07/15 01:11:42;;;;;;;9.13;4.85;;;;;;;20.66;64.45;99824.78;4949151;29;20067;-77
2023/07/15 01:14:09;;;;;;;10.60;4.70;;;;;;;20.70;64.41;99835.75;4948219;29;20051;-77
2023/07/15 01:16:39;;;;;;;6.18;4.07;;;;;;;20.62;64.50;99820.19;4946652;29;20522;-77
2023/07/15 01:19:20;;;;;;;8.85;4.38;;;;;;;20.67;64.41;99825.59;4909246;29;1084272;-77
2023/07/15 01:21:49;;;;;;;9.23;4.32;;;;;;;20.62;64.39;99818.31;4943222;29;20130;-77
2023/07/15 01:24:18;;;;;;;5.88;4.38;;;;;;;20.59;64.71;99823.31;4947042;29;20481;-76
2023/07/15 01:26:44;;;;;;;5.88;4.38;;;;;;;20.54;64.69;99818.72;4954743;28;20163;-77
2023/07/15 01:29:13;;;;;;;6.63;4.70;;;;;;;20.56;64.58;99819.28;4945769;29;20138;-77
2023/07/15 01:31:40;;;;;;;7.90;4.72;;;;;;;20.54;64.88;99816.06;4948334;29;20047;-77
2023/07/15 01:34:07;;;;;;;8.63;5.22;;;;;;;20.47;65.18;99818.06;4950892;29;20051;-77
2023/07/15 01:36:34;;;;;;;6.35;4.75;;;;;;;20.43;65.21;99808.97;4952329;29;20044;-77
2023/07/15 01:39:00;;;;;;;10.20;4.05;;;;;;;20.48;65.05;99817.03;4949851;29;20059;-77
2023/07/15 01:41:28;;;;;;;6.05;4.35;;;;;;;20.48;65.08;99811.72;4946420;29;20134;-76
2023/07/15 01:43:55;;;;;;;7.82;4.53;;;;;;;20.55;64.89;99807.03;4945762;29;20048;-78
2023/07/15 01:46:22;;;;;;;7.10;4.10;;;;;;;20.62;64.75;99818.31;4944100;29;20098;-77
2023/07/15 01:48:49;;;;;;;6.00;4.22;;;;;;;20.68;64.66;99805.94;4941032;29;20089;-77
2023/07/15 01:51:16;;;;;;;6.22;4.75;;;;;;;20.74;64.46;99800.44;4936736;29;20046;-75
2023/07/15 01:53:42;;;;;;;8.10;4.35;;;;;;;20.76;64.14;99797.56;4937008;29;20488;-75
2023/07/15 01:56:09;;;;;;;9.25;4.45;;;;;;;20.78;64.32;99804.25;4936522;29;20150;-75
2023/07/15 01:58:37;;;;;;;6.55;4.20;;;;;;;20.72;64.51;99797.22;4936415;29;20099;-75
2023/07/15 02:01:04;;;;;;;13.30;4.63;;;;;;;20.71;64.12;99794.81;4936115;29;20147;-76
2023/07/15 02:03:36;;;;;;;8.52;4.65;;;;;;;20.72;64.54;99807.88;4936383;29;20052;-76
2023/07/15 02:06:03;;;;;;;9.05;4.45;;;;;;;20.73;64.40;99796.19;4936335;29;20083;-76
2023/07/15 02:08:30;;;;;;;6.70;4.45;;;;;;;20.63;64.57;99796.03;4936310;29;20139;-75
2023/07/15 02:10:59;;;;;;;6.85;4.35;;;;;;;20.58;64.96;99793.28;4936247;29;20051;-76
2023/07/15 02:13:25;;;;;;;7.15;4.47;;;;;;;20.51;64.82;99796.09;4936206;29;20040;-76
2023/07/15 02:15:53;;;;;;;7.60;4.20;;;;;;;20.50;65.03;99791.00;4935848;29;20056;-76
2023/07/15 02:18:22;;;;;;;11.73;4.43;;;;;;;20.52;64.80;99791.59;4935822;29;20047;-75
2023/07/15 02:20:49;;;;;;;6.93;4.35;;;;;;;20.57;64.83;99791.66;4935480;29;20088;-75
2023/07/15 02:23:17;;;;;;;6.18;4.18;;;;;;;20.56;64.62;99792.72;4935979;29;20142;-77
2023/07/15 02:25:44;;;;;;;8.15;4.80;;;;;;;20.52;64.81;99791.59;4935907;29;20051;-76
2023/07/15 02:28:10;;;;;;;6.10;4.07;;;;;;;20.54;64.82;99784.97;4935658;29;20048;-76
2023/07/15 02:30:37;;;;;;;7.10;4.20;;;;;;;20.56;64.69;99792.72;4935367;29;20156;-76
2023/07/15 02:33:06;;;;;;;7.35;4.30;;;;;;;20.51;64.62;99789.97;4936104;29;20580;-76
2023/07/15 02:35:33;;;;;;;5.20;4.40;;;;;;;20.48;64.65;99790.44;4935793;29;20055;-76
2023/07/15 02:38:00;;;;;;;7.20;4.10;;;;;;;20.46;64.81;99793.34;4935388;29;20064;-75
2023/07/15 02:40:27;;;;;;;6.60;4.35;;;;;;;20.44;64.90;99789.31;4935498;29;20047;-75
2023/07/15 02:42:53;;;;;;;6.57;4.50;;;;;;;20.40;64.97;99782.88;4935503;29;20150;-75
2023/07/15 02:45:20;;;;;;;5.85;4.20;;;;;;;20.38;64.82;99784.97;4935338;29;20471;-75
2023/07/15 02:47:47;;;;;;;5.10;3.97;;;;;;;20.44;64.72;99786.66;4935654;29;20138;-76
2023/07/15 02:50:15;;;;;;;8.32;4.10;;;;;;;20.44;64.35;99776.03;4934982;29;20062;-76
2023/07/15 02:52:43;;;;;;;5.80;4.38;;;;;;;20.44;64.30;99789.31;4935646;29;20150;-76
2023/07/15 02:55:09;;;;;;;6.88;4.30;;;;;;;20.43;64.63;99793.03;4936085;29;20047;-76
2023/07/15 02:57:36;;;;;;;6.25;3.97;;;;;;;20.45;64.24;99798.91;4937740;29;20078;-76
2023/07/15 03:00:12;;;;;;;7.60;4.13;;;;;;;20.41;64.71;99800.44;4939573;29;20047;-76
2023/07/15 03:05:26;;;;;;;6.40;4.00;;;;;;;20.35;64.18;99790.72;5017712;28;20053;-82
2023/07/15 03:08:39;;;;;;;;;;;;;;;;;;;;;
2023/07/15 03:12:00;;;;;;;5.93;4.10;;;;;;;20.35;64.35;99796.03;4941896;28;20133;-82
2023/07/15 03:15:26;;;;;;;8.57;3.97;;;;;;;20.27;64.35;99799.09;4991228;28;20054;-82
2023/07/15 03:17:53;;;;;;;5.68;4.00;;;;;;;20.29;64.34;99789.84;4982293;28;20046;-81
2023/07/15 03:20:20;;;;;;;4.82;3.72;;;;;;;20.13;64.10;99772.03;4999832;28;20054;-81
2023/07/15 03:22:52;;;;;;;5.68;4.00;;;;;;;20.28;64.73;99803.38;5000942;28;20074;-82
2023/07/15 03:25:24;;;;;;;9.43;4.47;;;;;;;20.24;64.31;99802.25;5001207;28;20407;-81
2023/07/15 03:28:05;;;;;;;6.82;4.18;;;;;;;20.12;64.25;99776.53;5001199;28;20054;-82
2023/07/15 03:30:44;;;;;;;7.28;4.05;;;;;;;20.09;64.52;99778.88;5000451;28;20160;-82
2023/07/15 03:33:23;;;;;;;7.50;3.92;;;;;;;20.27;64.33;99805.22;5000750;28;20113;-81
2023/07/15 03:35:49;;;;;;;5.00;3.70;;;;;;;20.29;64.18;99802.34;5000501;28;20112;-80
2023/07/15 03:38:17;;;;;;;7.43;4.32;;;;;;;20.28;64.27;99803.38;5000773;28;20073;-80
2023/07/15 03:40:44;;;;;;;8.68;3.75;;;;;;;20.29;64.30;99802.34;4999714;28;20081;-80
2023/07/15 03:43:11;;;;;;;5.70;4.15;;;;;;;20.29;64.19;99800.47;5006550;28;20053;-80
2023/07/15 03:45:37;;;;;;;8.00;3.88;;;;;;;20.32;64.26;99801.84;5000695;28;20542;-81
2023/07/15 03:48:05;;;;;;;6.78;3.95;;;;;;;20.31;64.19;99805.56;5010378;28;20152;-81
2023/07/15 03:50:31;;;;;;;9.23;4.25;;;;;;;20.33;64.18;99806.09;5013957;28;20058;-81
2023/07/15 03:52:58;;;;;;;7.40;4.22;;;;;;;20.32;64.33;99807.19;5001060;28;20081;-81
2023/07/15 03:55:26;;;;;;;5.30;3.90;;;;;;;20.33;64.27;99806.09;5001145;28;20077;-81
2023/07/15 03:57:52;;;;;;;6.53;3.95;;;;;;;20.34;64.42;99805.84;5001006;28;20137;-80
2023/07/15 04:00:19;;;;;;;9.48;4.30;;;;;;;20.39;64.24;99805.19;5006851;28;20085;-78
2023/07/15 04:02:48;;;;;;;6.78;4.20;;;;;;;20.44;64.21;99797.28;4998740;28;20053;-79
2023/07/15 04:05:14;;;;;;;7.22;3.88;;;;;;;20.58;64.03;99790.63;5000412;28;20153;-79
2023/07/15 04:07:42;;;;;;;6.40;4.15;;;;;;;20.88;63.25;99788.41;5001193;28;20550;-79
2023/07/15 04:10:09;;;;;;;7.00;3.92;;;;;;;21.33;62.23;99787.47;5002373;28;20050;-79
2023/07/15 04:12:37;;;;;;;7.88;4.03;;;;;;;21.73;61.08;99781.03;4997238;28;20042;-79
2023/07/15 04:15:04;;;;;;;7.55;4.07;;;;;;;21.84;60.61;99778.19;5003350;28;20073;-78
2023/07/15 04:17:31;;;;;;;7.30;4.13;;;;;;;22.07;60.11;99781.66;4994389;28;20621;-79
2023/07/15 04:19:58;;;;;;;6.18;4.00;;;;;;;22.30;59.90;99776.00;4996445;28;20490;-79
2023/07/15 04:22:24;;;;;;;9.90;4.10;;;;;;;22.23;59.75;99779.94;4997620;28;20121;-79
2023/07/15 04:24:51;;;;;;;7.05;4.00;;;;;;;22.12;59.83;99779.88;4997267;28;20129;-78
2023/07/15 04:27:18;;;;;;;6.88;3.63;;;;;;;21.93;60.32;99783.88;4996846;28;20086;-79
2023/07/15 04:29:46;;;;;;;4.30;3.60;;;;;;;21.96;60.52;99775.41;4992494;28;20054;-79
2023/07/15 04:32:12;;;;;;;7.95;4.03;;;;;;;22.46;59.41;99776.94;4996778;28;20402;-79
2023/07/15 04:34:39;;;;;;;7.55;3.97;;;;;;;22.88;58.73;99776.19;4995411;28;20494;-79
2023/07/15 04:37:06;;;;;;;5.63;3.85;;;;;;;22.81;58.63;99776.41;4996614;28;20050;-79
2023/07/15 04:39:33;;;;;;;7.40;3.90;;;;;;;23.00;58.73;99792.81;4996307;28;20109;-79
2023/07/15 04:42:00;;;;;;;6.88;3.58;;;;;;;22.71;59.16;99792.31;5004789;28;20122;-79
2023/07/15 04:44:26;;;;;;;6.57;3.80;;;;;;;22.69;59.50;99800.56;4997315;28;20101;-79
2023/07/15 04:46:54;;;;;;;6.88;4.15;;;;;;;22.50;60.32;99805.50;4996587;28;20150;-80
2023/07/15 04:49:22;;;;;;;7.88;4.05;;;;;;;22.64;60.54;99815.75;4998403;28;20115;-80
2023/07/15 04:51:48;;;;;;;6.53;4.13;;;;;;;22.99;59.44;99794.69;5002450;28;20085;-80
2023/07/15 04:54:15;;;;;;;5.43;4.22;;;;;;;22.83;60.01;99799.13;5003385;28;20109;-79
2023/07/15 04:56:42;;;;;;;7.63;4.45;;;;;;;22.69;60.80;99810.44;5004893;28;20061;-79
2023/07/15 04:59:09;;;;;;;7.15;3.97;;;;;;;22.84;60.88;99808.72;5001391;28;20085;-78
2023/07/15 05:01:36;;;;;;;7.07;4.00;;;;;;;23.14;60.08;99808.13;4996307;28;20050;-78
2023/07/15 05:04:04;;;;;;;9.20;4.20;;;;;;;23.44;59.25;99807.47;5002066;28;20066;-80
2023/07/15 05:06:31;;;;;;;5.95;4.38;;;;;;;23.20;59.66;99806.25;4996036;28;20137;-79
2023/07/15 05:08:58;;;;;;;5.97;4.13;;;;;;;23.35;59.25;99810.88;5000966;28;20053;-78
2023/07/15 05:11:25;;;;;;;10.82;4.15;;;;;;;23.17;59.98;99812.13;5004324;28;20058;-79
2023/07/15 05:13:52;;;;;;;8.93;4.07;;;;;;;22.94;60.82;99801.84;5001677;28;20046;-79
2023/07/15 05:16:20;;;;;;;5.53;3.70;;;;;;;23.10;60.69;99800.91;4998010;28;20136;-77
2023/07/15 05:18:47;;;;;;;9.73;4.70;;;;;;;22.88;61.23;99803.69;4996791;28;20130;-79
2023/07/15 05:21:15;;;;;;;7.35;4.28;;;;;;;23.12;60.99;99791.56;5003604;28;20122;-78
2023/07/15 05:23:42;;;;;;;9.55;4.20;;;;;;;23.52;59.90;99797.34;4998892;28;20090;-80
2023/07/15 05:26:08;;;;;;;6.60;4.20;;;;;;;24.20;58.35;99792.72;5000442;28;20129;-81
2023/07/15 05:28:35;;;;;;;6.07;4.15;;;;;;;25.26;56.33;99781.97;5016652;28;20089;-80
2023/07/15 05:31:03;;;;;;;6.78;3.97;;;;;;;26.57;54.17;99784.97;5007524;28;20050;-81
2023/07/15 05:33:33;;;;;;;6.93;4.15;;;;;;;27.55;51.26;99767.53;5005771;28;20058;-80
2023/07/15 05:36:00;;;;;;;9.43;3.97;;;;;;;28.57;49.45;99774.91;5011016;28;20077;-81
2023/07/15 05:38:28;;;;;;;6.70;3.75;;;;;;;29.35;48.41;99790.16;5004331;28;20109;-81
2023/07/15 05:40:56;;;;;;;7.28;3.83;;;;;;;30.08;46.63;99771.38;5009703;28;20051;-81
2023/07/15 05:43:22;;;;;;;6.15;3.50;;;;;;;30.25;46.10;99774.97;5010175;28;20133;-81
2023/07/15 05:45:49;;;;;;;5.07;3.40;;;;;;;30.68;45.82;99785.28;5002925;28;20046;-81
2023/07/15 05:48:15;;;;;;;9.10;3.60;;;;;;;31.18;44.85;99785.84;5011585;28;20461;-80
2023/07/15 05:50:42;;;;;;;5.72;3.58;;;;;;;31.35;44.29;99785.09;5001144;28;20058;-80
2023/07/15 05:53:09;;;;;;;7.38;3.63;;;;;;;31.37;44.03;99790.97;5009605;28;20045;-80
2023/07/15 05:55:37;;;;;;;8.63;3.63;;;;;;;30.82;44.34;99788.69;5008403;28;20046;-80
2023/07/15 05:58:09;;;;;;;5.95;3.30;;;;;;;31.10;44.18;99802.00;5010303;28;20051;-79
2023/07/15 06:00:36;;;;;;;4.75;3.55;;;;;;;31.58;43.43;99791.19;5000402;28;20069;-79
2023/07/15 06:03:04;;;;;;;4.93;3.60;;;;;;;31.66;43.55;99793.91;5001145;28;20077;-80
2023/07/15 06:05:30;;;;;;;4.25;3.40;;;;;;;31.27;44.02;99786.66;5001710;28;20518;-79
2023/07/15 06:07:57;;;;;;;9.43;3.83;;;;;;;30.79;44.44;99769.59;5002987;28;20056;-81
2023/07/15 06:10:23;;;;;;;7.45;3.70;;;;;;;30.77;44.70;99788.81;5010238;28;20109;-80
2023/07/15 06:12:51;;;;;;;4.60;3.17;;;;;;;30.87;44.84;99798.56;5001532;28;20114;-80
2023/07/15 06:15:18;;;;;;;5.47;3.30;;;;;;;30.44;44.97;99788.28;4999972;28;20149;-79
2023/07/15 06:17:45;;;;;;;7.63;3.75;;;;;;;30.33;45.25;99798.53;5000897;28;20074;-80
2023/07/15 06:20:12;;;;;;;6.57;3.75;;;;;;;30.40;45.32;99792.69;5001487;28;20058;-80
2023/07/15 06:22:38;;;;;;;7.13;3.58;;;;;;;30.92;44.93;99799.22;5010855;28;20074;-82
2023/07/15 06:25:06;;;;;;;5.07;3.38;;;;;;;30.98;44.95;99792.56;5001432;28;20097;-79
2023/07/15 06:27:33;;;;;;;8.23;3.80;;;;;;;30.19;45.80;99780.81;5001759;28;20072;-81
2023/07/15 06:30:01;;;;;;;6.82;3.50;;;;;;;29.68;46.36;99779.25;5002019;28;20446;-80
2023/07/15 06:32:27;;;;;;;10.15;3.45;;;;;;;29.04;47.94;99784.56;5003129;28;20473;-80
2023/07/15 06:34:54;;;;;;;6.68;3.72;;;;;;;28.66;48.51;99789.28;5008357;28;20058;-82
2023/07/15 06:37:21;;;;;;;5.93;3.92;;;;;;;28.55;49.21;99787.06;5008500;28;20081;-81
2023/07/15 06:39:50;;;;;;;4.53;3.88;;;;;;;28.61;48.98;99781.31;5010699;28;20046;-83
2023/07/15 06:42:17;;;;;;;7.25;3.80;;;;;;;28.20;49.77;99780.34;5007766;28;20053;-81
2023/07/15 06:44:43;;;;;;;10.63;3.60;;;;;;;27.86;50.07;99785.97;5005159;28;20490;-83
2023/07/15 06:47:12;;;;;;;6.18;3.72;;;;;;;27.65;50.96;99775.50;5002041;28;20141;-80
2023/07/15 06:49:38;;;;;;;6.38;3.72;;;;;;;27.66;50.61;99762.84;5002838;28;20133;-81
2023/07/15 06:52:06;;;;;;;5.85;3.42;;;;;;;27.59;51.41;99770.47;5003027;28;20565;-80
2023/07/15 06:54:32;;;;;;;7.80;3.65;;;;;;;27.49;51.33;99781.31;5004705;28;20055;-80
2023/07/15 06:56:59;;;;;;;7.55;3.92;;;;;;;27.00;52.15;99777.84;5005975;28;20565;-81
2023/07/15 06:59:26;;;;;;;5.28;3.88;;;;;;;26.88;52.54;99777.44;5001423;28;20081;-81
2023/07/15 07:01:52;;;;;;;6.07;3.80;;;;;;;26.55;52.89;99764.84;5002190;28;20153;-82
2023/07/15 07:04:20;;;;;;;5.45;3.83;;;;;;;26.50;53.36;99770.28;5001042;28;20109;-81
2023/07/15 07:06:47;;;;;;;6.07;3.60;;;;;;;26.27;53.81;99782.50;5011599;28;20092;-81
2023/07/15 07:09:13;;;;;;;11.98;4.07;;;;;;;26.15;54.06;99776.69;4999634;28;20141;-79
2023/07/15 07:11:40;;;;;;;10.55;3.55;;;;;;;26.05;54.44;99786.41;5000328;28;20137;-80
2023/07/15 07:14:06;;;;;;;11.40;3.83;;;;;;;26.02;54.89;99791.53;4999871;28;20118;-79
2023/07/15 07:16:33;;;;;;;6.43;3.78;;;;;;;25.95;55.12;99785.69;4997694;28;20093;-79
2023/07/15 07:18:59;;;;;;;9.38;3.75;;;;;;;25.89;55.51;99792.16;4999169;28;20148;-79
2023/07/15 07:21:27;;;;;;;5.30;3.20;;;;;;;25.75;55.15;99786.59;4997934;28;20092;-80
2023/07/15 07:23:55;;;;;;;8.27;3.78;;;;;;;25.79;55.70;99793.00;5000590;28;20477;-80
2023/07/15 07:26:22;;;;;;;6.70;3.78;;;;;;;25.81;55.85;99788.19;5000499;28;20050;-79
2023/07/15 07:28:48;;;;;;;7.13;3.83;;;;;;;25.82;56.07;99786.31;4998000;28;20196;-80
2023/07/15 07:31:17;;;;;;;7.38;3.75;;;;;;;25.82;56.21;99787.09;4996640;28;20081;-80
2023/07/15 07:33:44;;;;;;;7.57;3.92;;;;;;;25.77;56.41;99800.53;4996604;28;20731;-80
2023/07/15 07:36:11;;;;;;;7.28;4.13;;;;;;;25.71;57.73;99807.78;4996906;28;20092;-82
2023/07/15 07:38:39;;;;;;;5.15;3.90;;;;;;;25.53;57.97;99826.31;5001504;28;20049;-81
2023/07/15 07:41:07;;;;;;;5.35;3.50;;;;;;;25.59;57.90;99817.97;4997579;28;20052;-81
2023/07/15 07:43:35;;;;;;;7.65;3.78;;;;;;;25.53;57.48;99810.25;5002253;28;20129;-80
2023/07/15 07:46:02;;;;;;;4.72;3.58;;;;;;;25.65;57.34;99808.09;5002311;28;20102;-80
2023/07/15 07:48:28;;;;;;;6.88;3.70;;;;;;;25.61;57.53;99809.66;5001871;28;20077;-81
2023/07/15 07:50:55;;;;;;;6.85;3.85;;;;;;;25.72;57.75;99820.09;5003214;28;20173;-82
2023/07/15 07:53:22;;;;;;;6.55;4.20;;;;;;;25.74;58.61;99838.59;5000328;28;20074;-81
2023/07/15 07:55:50;;;;;;;10.15;4.07;;;;;;;25.85;58.80;99848.19;4999568;28;20136;-79
2023/07/15 07:58:17;;;;;;;5.40;3.50;;;;;;;25.80;58.96;99864.28;5001856;28;20085;-81
2023/07/15 08:00:44;;;;;;;6.93;3.70;;;;;;;25.90;59.37;99869.59;5001148;28;20097;-81
2023/07/15 08:03:11;;;;;;;7.55;3.65;;;;;;;25.96;59.11;99857.78;5001596;28;20138;-81
2023/07/15 08:05:42;;;;;;;7.28;3.85;;;;;;;25.88;59.11;99866.41;5002785;28;20381;-81
2023/07/15 08:08:08;;;;;;;8.27;4.00;;;;;;;25.69;59.13;99846.66;5000168;28;20093;-82
2023/07/15 08:10:35;;;;;;;4.38;3.45;;;;;;;25.60;59.42;99854.41;5009090;28;20114;-83
2023/07/15 08:13:05;;;;;;;5.82;3.60;;;;;;;25.53;59.83;99837.03;5005338;28;20102;-82
2023/07/15 08:15:32;;;;;;;8.88;3.28;;;;;;;25.32;60.82;99863.88;5001964;28;20088;-82
2023/07/15 08:17:59;;;;;;;9.32;3.90;;;;;;;25.21;61.06;99873.00;5008857;28;20121;-82
2023/07/15 08:20:25;;;;;;;13.18;3.90;;;;;;;25.19;61.64;99867.13;5002865;28;20051;-81
2023/07/15 08:22:52;;;;;;;8.35;3.67;;;;;;;25.10;63.20;99879.44;5002332;28;20078;-81
2023/07/15 08:25:19;;;;;;;10.00;3.63;;;;;;;24.75;66.63;99897.09;5002112;28;20595;-82
2023/07/15 08:27:45;;;;;;;11.63;3.80;;;;;;;24.37;70.94;99921.66;5006010;28;20557;-81
2023/07/15 08:30:14;;;;;;;7.88;3.90;;;;;;;24.04;72.91;99957.63;5006836;28;20073;-82
2023/07/15 08:32:40;;;;;;;9.95;3.75;;;;;;;23.77;74.31;99961.22;4999785;28;20042;-82
2023/07/15 08:35:08;;;;;;;7.70;3.50;;;;;;;23.67;74.58;99950.47;5004727;28;20069;-82
2023/07/15 08:37:34;;;;;;;10.27;3.70;;;;;;;23.45;77.38;99947.09;5004080;28;20074;-81
2023/07/15 08:40:01;;;;;;;8.20;4.20;;;;;;;23.11;79.89;99947.41;4998802;28;20081;-82
2023/07/15 08:42:30;;;;;;;5.00;3.65;;;;;;;22.65;83.67;99956.84;5008098;28;20046;-82
2023/07/15 08:44:56;;;;;;;8.02;4.00;;;;;;;22.49;86.30;99976.38;5018330;28;20077;-81
2023/07/15 08:47:25;;;;;;;7.10;3.97;;;;;;;22.40;88.57;99984.00;5003748;28;20115;-81
2023/07/15 08:49:54;;;;;;;11.57;4.47;;;;;;;22.25;90.04;99993.69;5008001;28;20080;-83
2023/07/15 08:52:22;;;;;;;10.63;4.88;;;;;;;22.12;92.64;100024.19;5001484;28;20073;-83
2023/07/15 08:54:51;;;;;;;11.38;4.43;;;;;;;21.76;94.21;100062.78;4995972;28;20093;-82
2023/07/15 08:57:19;;;;;;;14.57;4.97;;;;;;;21.66;96.31;100054.66;5003207;28;20464;-82
2023/07/15 08:59:46;;;;;;;8.75;5.25;;;;;;;21.50;98.11;100041.09;5006461;28;20117;-81
2023/07/15 09:02:15;;;;;;;11.77;5.38;;;;;;;21.25;99.71;100053.97;5003425;28;20058;-80
2023/07/15 09:04:43;;;;;;;9.60;5.03;;;;;;;21.16;100.00;100053.53;5010142;28;20524;-80
2023/07/15 09:07:10;;;;;;;7.80;5.25;;;;;;;21.07;100.00;100068.25;5007730;28;20053;-79
2023/07/15 09:09:39;;;;;;;7.28;4.80;;;;;;;21.08;100.00;100075.19;5001589;28;20129;-81
2023/07/15 09:12:07;;;;;;;10.55;4.53;;;;;;;21.14;100.00;100086.75;5000046;28;20124;-79
2023/07/15 09:14:39;;;;;;;10.43;5.40;;;;;;;21.13;100.00;100071.81;4999275;28;20104;-81
2023/07/15 09:17:06;;;;;;;7.28;5.03;;;;;;;21.01;100.00;100068.41;5000016;28;20058;-81
2023/07/15 09:19:34;;;;;;;7.38;5.35;;;;;;;21.00;100.00;100074.75;4999280;28;20074;-81
2023/07/15 09:22:06;;;;;;;10.70;5.43;;;;;;;20.92;100.00;100085.78;5007644;28;20054;-80
2023/07/15 09:24:34;;;;;;;9.80;5.30;;;;;;;20.85;100.00;100094.69;5001551;28;20101;-80
2023/07/15 09:27:01;;;;;;;9.00;5.38;;;;;;;20.59;100.00;100073.16;5003792;28;20106;-80
2023/07/15 09:29:27;;;;;;;8.00;5.45;;;;;;;20.57;100.00;100072.59;5001649;28;20126;-80
2023/07/15 09:31:54;;;;;;;9.55;5.60;;;;;;;20.43;100.00;100074.69;5001426;28;20171;-80
2023/07/15 09:34:21;;;;;;;10.90;6.00;;;;;;;20.49;100.00;100071.91;5009078;28;20060;-79
2023/07/15 09:36:47;;;;;;;13.98;5.95;;;;;;;20.62;100.00;100068.19;4999340;28;20046;-80
2023/07/15 09:39:17;;;;;;;13.35;5.90;;;;;;;20.44;100.00;100058.53;4998160;28;20045;-80
2023/07/15 09:41:44;;;;;;;10.82;5.97;;;;;;;20.55;100.00;100046.25;4999180;28;20046;-79
2023/07/15 09:44:12;;;;;;;9.80;5.93;;;;;;;20.52;100.00;100014.81;4996604;28;20046;-79
2023/07/15 09:46:40;;;;;;;13.77;5.90;;;;;;;20.47;100.00;100004.09;4996775;28;20141;-79
2023/07/15 09:49:07;;;;;;;11.00;6.05;;;;;;;20.47;100.00;99996.94;4995522;28;20086;-79
2023/07/15 09:51:35;;;;;;;13.35;6.65;;;;;;;20.46;100.00;99970.59;4997373;28;20129;-79
2023/07/15 09:54:02;;;;;;;9.30;6.25;;;;;;;20.70;100.00;99985.41;4998448;28;20072;-79
2023/07/15 09:56:35;;;;;;;13.88;5.70;;;;;;;20.86;100.00;100029.03;4997176;28;20054;-79
2023/07/15 09:59:05;;;;;;;9.02;5.75;;;;;;;20.86;100.00;100005.91;4997587;28;20050;-78
2023/07/15 10:01:36;;;;;;;10.23;5.82;;;;;;;20.81;100.00;100002.34;4997589;28;20486;-79
2023/07/15 10:04:13;;;;;;;10.50;6.20;;;;;;;20.79;100.00;99976.00;4997175;28;20141;-80
2023/07/15 10:06:40;;;;;;;7.57;5.80;;;;;;;21.01;100.00;100002.72;5003617;28;20042;-78
2023/07/15 10:09:09;;;;;;;7.15;5.53;;;;;;;20.83;100.00;100017.00;4998686;28;20064;-79
2023/07/15 10:11:41;;;;;;;9.63;5.47;;;;;;;20.80;100.00;100014.81;4996175;28;20441;-77
2023/07/15 10:14:09;;;;;;;;;;;;;;;20.78;100.00;100008.97;4993902;28;20485;-79
2023/07/15 10:16:36;;;;;;;9.60;5.95;;;;;;;20.66;100.00;100026.81;4995418;28;20013;-77
2023/07/15 10:19:03;;;;;;;8.20;6.03;;;;;;;20.60;100.00;100022.44;4995661;28;20438;-77
2023/07/15 10:21:30;;;;;;;8.13;5.57;;;;;;;20.51;100.00;100024.66;4996439;28;20046;-81
2023/07/15 10:24:08;;;;;;;8.70;6.53;;;;;;;20.71;100.00;100040.19;5000978;28;20148;-80
2023/07/15 10:26:47;;;;;;;9.65;6.65;;;;;;;20.49;100.00;100025.94;5001356;28;20049;-80
2023/07/15 10:29:14;;;;;;;10.43;6.20;;;;;;;20.56;100.00;100020.47;5009812;28;20145;-81
2023/07/15 10:31:41;;;;;;;8.45;6.60;;;;;;;20.54;100.00;100023.38;5003897;28;20151;-79
2023/07/15 10:34:08;;;;;;;11.50;6.70;;;;;;;20.56;100.00;100021.28;5006670;28;20097;-80
2023/07/15 10:36:41;;;;;;;9.27;6.15;;;;;;;20.69;100.00;100047.59;5002139;28;20050;-81
2023/07/15 10:39:12;;;;;;;11.50;6.68;;;;;;;20.73;100.00;100038.13;4997301;28;20109;-80
2023/07/15 10:41:45;;;;;;;9.32;6.03;;;;;;;20.51;100.00;100055.72;4998811;28;20073;-80
2023/07/15 10:44:22;;;;;;;9.32;5.82;;;;;;;20.57;100.00;100060.13;4993144;28;20051;-79
2023/07/15 10:46:52;;;;;;;13.38;6.60;;;;;;;20.51;100.00;100045.09;4996168;28;20149;-78
2023/07/15 10:49:22;;;;;;;8.45;6.28;;;;;;;20.44;100.00;100039.91;4998480;28;20502;-83
2023/07/15 10:51:52;;;;;;;11.50;6.80;;;;;;;20.46;100.00;100037.03;4998940;28;20057;-79
2023/07/15 10:54:20;;;;;;;12.02;6.57;;;;;;;20.52;100.00;100038.75;5006917;28;20621;-80
2023/07/15 10:56:48;;;;;;;9.50;6.60;;;;;;;20.79;100.00;100047.00;5001629;28;20065;-80
2023/07/15 10:59:17;;;;;;;9.10;6.32;;;;;;;20.97;100.00;100038.81;5002580;28;20490;-81
2023/07/15 11:01:47;;;;;;;7.00;5.43;;;;;;;21.44;100.00;100049.22;4998414;28;20136;-80
2023/07/15 11:04:14;;;;;;;7.65;5.68;;;;;;;22.02;100.00;100069.34;4995126;28;20038;-80
2023/07/15 11:06:41;;;;;;;7.78;5.53;;;;;;;22.31;100.00;100096.63;4999715;28;20050;-81
2023/07/15 11:09:15;;;;;;;6.95;4.97;;;;;;;22.65;100.00;100092.84;5002819;28;20134;-80
2023/07/15 11:11:45;;;;;;;8.70;5.20;;;;;;;22.83;100.00;100073.84;4996182;28;20073;-80
2023/07/15 11:14:24;;;;;;;7.20;5.07;;;;;;;23.06;100.00;100064.78;4989943;28;20453;-81
2023/07/15 11:16:54;;;;;;;7.25;5.10;;;;;;;22.94;100.00;100057.97;4996190;28;20084;-83
2023/07/15 11:19:26;;;;;;;7.78;5.30;;;;;;;23.03;99.13;100043.13;4998960;28;20442;-81
2023/07/15 11:21:53;;;;;;;7.40;5.05;;;;;;;23.08;97.95;100048.50;4994270;28;20065;-81
2023/07/15 11:24:22;;;;;;;6.35;5.07;;;;;;;23.17;98.64;100046.97;4997146;28;20105;-79
2023/07/15 11:26:49;;;;;;;8.13;5.40;;;;;;;23.16;98.64;100040.03;4998012;28;20054;-79
2023/07/15 11:29:18;;;;;;;6.97;5.00;;;;;;;23.22;98.57;100049.69;4993714;28;20046;-79
2023/07/15 11:31:53;;;;;;;7.43;5.63;;;;;;;23.17;100.00;100058.47;4995627;28;20133;-79
2023/07/15 11:34:21;;;;;;;5.88;4.40;;;;;;;23.48;100.00;100064.09;4996023;28;20042;-79
2023/07/15 11:36:49;;;;;;;7.53;5.15;;;;;;;23.83;98.10;100044.88;5002823;28;20102;-80
2023/07/15 11:39:17;;;;;;;7.28;5.07;;;;;;;23.95;94.60;100029.44;4999553;28;20061;-79